PWSweather.com
Personal Weather Stations
Station Observations
BLACKWELL
Blackwell, AlfretonGB DE55

BlackwellAlfretonGB DE55

Lat: 53.12076, Lon: -1.354978

Elevation: 410

Station Type: Vantage Pro

High Low Average
Temperature 55.8°F13.2°C 48.0°F8.9°C 51.0°F10.6°C
Dew Point 47.1°F8.4°C 43.7°F6.5°C 45.8°F7.7°C
Winds 5.0 mph 8.0 kmh Calm Calm 2.0 mph SW3.2 kmh SW
Wind Gusts 11.0 mph17.7 kmh 2.0 mph3.2 kmh 7.0 mph11.3 kmh
Humidity 89% 68% 82%
Pressure 30.37 in1028.4 mb 30.23 in1023.7 mb -
Precipitation 0.00 in0.0 mm - -
Hour Temp Dew Point Humidity Winds Wind Gusts Pressure Precip Precip Rate Daily Precip Total
12:34 AM 50.5°F10.3°C 47.1°F8.4°C 88% Calm Calm 6.0 mph9.7 kmh 30.37 in1028.4 mb 0.00 in0.0 mm 0.00 in0.0 mm 0.00 in0.0 mm
01:34 AM 50.2°F10.1°C 46.9°F8.3°C 89% Calm Calm 3.0 mph4.8 kmh 30.36 in1028.1 mb 0.00 in0.0 mm 0.00 in0.0 mm 0.00 in0.0 mm
02:34 AM 50.5°F10.3°C 46.8°F8.2°C 87% 1.0 mph SSW1.6 kmh SSW 5.0 mph8.0 kmh 30.34 in1027.4 mb 0.00 in0.0 mm 0.00 in0.0 mm 0.00 in0.0 mm
03:34 AM 50.5°F10.3°C 46.9°F8.3°C 87% Calm Calm 3.0 mph4.8 kmh 30.33 in1027.1 mb 0.00 in0.0 mm 0.00 in0.0 mm 0.00 in0.0 mm
04:34 AM 50.4°F10.2°C 46.9°F8.3°C 88% Calm Calm 4.0 mph6.4 kmh 30.32 in1026.8 mb 0.00 in0.0 mm 0.00 in0.0 mm 0.00 in0.0 mm
05:34 AM 50.4°F10.2°C 46.6°F8.1°C 87% 1.0 mph S1.6 kmh S 6.0 mph9.7 kmh 30.30 in1026.1 mb 0.00 in0.0 mm 0.00 in0.0 mm 0.00 in0.0 mm
06:34 AM 50.4°F10.2°C 46.4°F8.0°C 86% 1.0 mph WSW1.6 kmh WSW 8.0 mph12.9 kmh 30.30 in1026.1 mb 0.00 in0.0 mm 0.00 in0.0 mm 0.00 in0.0 mm
07:34 AM 50.5°F10.3°C 46.6°F8.1°C 86% 1.0 mph WSW1.6 kmh WSW 6.0 mph9.7 kmh 30.30 in1026.1 mb 0.00 in0.0 mm 0.00 in0.0 mm 0.00 in0.0 mm
08:34 AM 49.8°F9.9°C 46.2°F7.9°C 87% 2.0 mph WSW3.2 kmh WSW 10.0 mph16.1 kmh 30.29 in1025.7 mb 0.00 in0.0 mm 0.00 in0.0 mm 0.00 in0.0 mm
09:34 AM 50.2°F10.1°C 45.5°F7.5°C 84% 3.0 mph WSW4.8 kmh WSW 9.0 mph14.5 kmh 30.28 in1025.4 mb 0.00 in0.0 mm 0.00 in0.0 mm 0.00 in0.0 mm
10:34 AM 50.5°F10.3°C 44.6°F7.0°C 80% 4.0 mph WSW6.4 kmh WSW 10.0 mph16.1 kmh 30.28 in1025.4 mb 0.00 in0.0 mm 0.00 in0.0 mm 0.00 in0.0 mm
11:34 AM 50.7°F10.4°C 43.7°F6.5°C 77% 4.0 mph WSW6.4 kmh WSW 10.0 mph16.1 kmh 30.27 in1025.1 mb 0.00 in0.0 mm 0.00 in0.0 mm 0.00 in0.0 mm
12:34 PM 52.5°F11.4°C 44.2°F6.8°C 73% 3.0 mph WSW4.8 kmh WSW 9.0 mph14.5 kmh 30.26 in1024.7 mb 0.00 in0.0 mm 0.00 in0.0 mm 0.00 in0.0 mm
01:34 PM 55.8°F13.2°C 45.3°F7.4°C 68% 5.0 mph WSW8.0 kmh WSW 11.0 mph17.7 kmh 30.24 in1024.0 mb 0.00 in0.0 mm 0.00 in0.0 mm 0.00 in0.0 mm
02:34 PM 53.8°F12.1°C 45.7°F7.6°C 74% 4.0 mph WSW6.4 kmh WSW 10.0 mph16.1 kmh 30.24 in1024.0 mb 0.00 in0.0 mm 0.00 in0.0 mm 0.00 in0.0 mm
03:34 PM 53.8°F12.1°C 46.0°F7.8°C 75% 3.0 mph WSW4.8 kmh WSW 8.0 mph12.9 kmh 30.23 in1023.7 mb 0.00 in0.0 mm 0.00 in0.0 mm 0.00 in0.0 mm
04:34 PM 52.9°F11.6°C 46.0°F7.8°C 78% 2.0 mph SW3.2 kmh SW 8.0 mph12.9 kmh 30.24 in1024.0 mb 0.00 in0.0 mm 0.00 in0.0 mm 0.00 in0.0 mm
05:34 PM 52.0°F11.1°C 46.2°F7.9°C 81% 2.0 mph SW3.2 kmh SW 9.0 mph14.5 kmh 30.25 in1024.4 mb 0.00 in0.0 mm 0.00 in0.0 mm 0.00 in0.0 mm
06:34 PM 51.3°F10.7°C 45.7°F7.6°C 81% 2.0 mph SW3.2 kmh SW 7.0 mph11.3 kmh 30.26 in1024.7 mb 0.00 in0.0 mm 0.00 in0.0 mm 0.00 in0.0 mm
07:34 PM 50.7°F10.4°C 45.5°F7.5°C 82% Calm Calm 3.0 mph4.8 kmh 30.27 in1025.1 mb 0.00 in0.0 mm 0.00 in0.0 mm 0.00 in0.0 mm
08:34 PM 50.7°F10.4°C 45.3°F7.4°C 82% 1.0 mph SW1.6 kmh SW 4.0 mph6.4 kmh 30.28 in1025.4 mb 0.00 in0.0 mm 0.00 in0.0 mm 0.00 in0.0 mm
09:34 PM 50.4°F10.2°C 46.0°F7.8°C 85% Calm Calm 2.0 mph3.2 kmh 30.30 in1026.1 mb 0.00 in0.0 mm 0.00 in0.0 mm 0.00 in0.0 mm
10:34 PM 48.4°F9.1°C 44.4°F6.9°C 86% 1.0 mph SW1.6 kmh SW 5.0 mph8.0 kmh 30.31 in1026.4 mb 0.00 in0.0 mm 0.00 in0.0 mm 0.00 in0.0 mm
11:34 PM 48.0°F8.9°C 44.1°F6.7°C 86% Calm Calm 2.0 mph3.2 kmh 30.31 in1026.4 mb 0.00 in0.0 mm 0.00 in0.0 mm 0.00 in0.0 mm